createdAt,value
2023-05-09T00:00:50.674Z,43.97
2023-05-09T00:01:53.374Z,43.97
2023-05-09T00:02:56.067Z,44.05
2023-05-09T00:03:59.318Z,44.05
2023-05-09T00:05:03.433Z,44.11
2023-05-09T00:06:06.854Z,44.49
2023-05-09T00:07:11.145Z,44.50
2023-05-09T00:08:13.419Z,44.00
2023-05-09T00:09:15.855Z,44.05
2023-05-09T00:10:18.184Z,44.30
2023-05-09T00:11:21.499Z,44.33
2023-05-09T00:12:23.754Z,44.63
2023-05-09T00:13:26.361Z,44.00
2023-05-09T00:14:28.626Z,44.06
2023-05-09T00:15:32.472Z,43.98
2023-05-09T00:16:36.157Z,44.10
2023-05-09T00:17:40.393Z,44.04
2023-05-09T00:18:43.527Z,44.09
2023-05-09T00:19:45.704Z,44.02
2023-05-09T00:20:48.691Z,44.18
2023-05-09T00:21:51.759Z,44.25
2023-05-09T00:22:54.808Z,44.89
2023-05-09T00:23:57.081Z,44.21
2023-05-09T00:25:00.390Z,44.51
2023-05-09T00:26:02.774Z,44.86
2023-05-09T00:27:05.382Z,44.48
2023-05-09T00:28:08.048Z,44.82
2023-05-09T00:29:10.242Z,44.91
2023-05-09T00:30:13.099Z,44.62
2023-05-09T00:31:15.867Z,44.75
2023-05-09T00:32:18.216Z,44.54
2023-05-09T00:33:21.013Z,44.55
2023-05-09T00:34:23.629Z,44.76
2023-05-09T00:35:26.164Z,44.61
2023-05-09T00:36:28.527Z,45.05
2023-05-09T00:37:31.034Z,44.98
2023-05-09T00:38:33.170Z,44.90
2023-05-09T00:39:35.447Z,45.03
2023-05-09T00:40:37.839Z,45.72
2023-05-09T00:41:40.331Z,44.75
2023-05-09T00:42:42.538Z,44.80
2023-05-09T00:43:45.554Z,44.95
2023-05-09T00:44:48.044Z,45.09
2023-05-09T00:45:50.550Z,45.54
2023-05-09T00:46:53.753Z,45.53
2023-05-09T00:47:57.238Z,44.90
2023-05-09T00:48:59.761Z,45.10
2023-05-09T00:50:03.077Z,44.66
2023-05-09T00:51:05.794Z,44.97
2023-05-09T00:52:09.177Z,45.51
2023-05-09T00:53:11.552Z,45.51
2023-05-09T00:54:14.944Z,45.48
2023-05-09T00:55:18.159Z,45.73
2023-05-09T00:56:21.309Z,45.20
2023-05-09T00:57:23.504Z,44.87
2023-05-09T00:58:25.998Z,45.24
2023-05-09T00:59:28.322Z,45.18
2023-05-09T01:00:32.233Z,46.21
2023-05-09T01:01:34.541Z,45.08
2023-05-09T01:02:36.873Z,45.02
2023-05-09T01:03:40.758Z,45.38
2023-05-09T01:04:44.626Z,45.28
2023-05-09T01:06:09.185Z,45.09
2023-05-09T01:07:24.112Z,45.41
2023-05-09T01:08:36.110Z,45.77
2023-05-09T01:09:45.623Z,45.75
2023-05-09T01:11:04.053Z,45.82
2023-05-09T01:13:34.843Z,45.82
2023-05-09T01:14:49.397Z,46.29
2023-05-09T01:16:21.402Z,46.56
2023-05-09T01:17:27.646Z,45.91
2023-05-09T01:18:39.664Z,45.98
2023-05-09T01:20:05.141Z,45.88
2023-05-09T01:21:13.635Z,45.94
2023-05-09T01:22:18.564Z,46.11
2023-05-09T01:23:45.816Z,46.31
2023-05-09T01:25:25.901Z,46.48
2023-05-09T01:27:03.627Z,46.64
2023-05-09T01:28:28.217Z,46.02
2023-05-09T01:29:45.759Z,46.07
2023-05-09T01:30:51.654Z,46.40
2023-05-09T01:31:56.203Z,46.44
2023-05-09T01:33:02.426Z,46.97
2023-05-09T01:34:07.214Z,46.94
2023-05-09T01:35:13.663Z,46.84
2023-05-09T01:36:18.745Z,46.63
2023-05-09T01:37:24.571Z,46.44
2023-05-09T01:38:30.313Z,46.52
2023-05-09T01:39:34.430Z,46.70
2023-05-09T01:40:40.201Z,47.00
2023-05-09T01:41:42.448Z,46.75
2023-05-09T01:42:54.067Z,46.46
2023-05-09T01:44:00.365Z,46.52
2023-05-09T01:45:05.469Z,47.13
2023-05-09T01:46:09.667Z,47.01
2023-05-09T01:47:12.462Z,46.94
2023-05-09T01:48:16.123Z,46.97
2023-05-09T01:49:20.378Z,46.68
2023-05-09T01:50:24.017Z,47.07
2023-05-09T01:51:30.279Z,47.03
2023-05-09T01:52:34.346Z,46.88
2023-05-09T01:53:36.922Z,47.04
2023-05-09T01:54:41.222Z,47.04
2023-05-09T01:55:45.378Z,47.21
2023-05-09T01:56:49.602Z,47.18
2023-05-09T01:57:53.565Z,47.49
2023-05-09T01:58:57.264Z,47.31
2023-05-09T02:00:01.002Z,47.98
2023-05-09T02:01:05.048Z,48.12
2023-05-09T02:02:07.775Z,47.72
2023-05-09T02:03:13.110Z,47.38
2023-05-09T02:04:17.248Z,47.40
2023-05-09T02:05:22.346Z,47.31
2023-05-09T02:06:27.706Z,47.27
2023-05-09T02:07:31.458Z,47.22
2023-05-09T02:08:34.751Z,47.90
2023-05-09T02:09:37.208Z,47.42
2023-05-09T02:10:40.025Z,47.59
2023-05-09T02:11:43.299Z,47.80
2023-05-09T02:12:46.594Z,47.33
2023-05-09T02:13:50.153Z,47.49
2023-05-09T02:14:52.431Z,47.62
2023-05-09T02:15:55.344Z,47.47
2023-05-09T02:16:59.745Z,47.74
2023-05-09T02:18:02.225Z,48.01
2023-05-09T02:19:04.992Z,47.54
2023-05-09T02:20:11.050Z,47.58
2023-05-09T02:21:13.555Z,47.98
2023-05-09T02:22:15.886Z,47.91
2023-05-09T02:23:19.352Z,47.64
2023-05-09T02:24:22.811Z,47.78
2023-05-09T02:25:26.591Z,48.47
2023-05-09T02:26:29.600Z,47.65
2023-05-09T02:27:34.700Z,47.81
2023-05-09T02:28:40.246Z,48.69
2023-05-09T02:29:46.162Z,47.63
2023-05-09T02:30:51.847Z,48.07
2023-05-09T02:31:54.840Z,47.44
2023-05-09T02:33:01.104Z,47.64
2023-05-09T02:34:05.021Z,47.40
2023-05-09T02:35:09.734Z,48.07
2023-05-09T02:36:14.212Z,47.42
2023-05-09T02:37:17.670Z,47.39
2023-05-09T02:38:21.445Z,47.70
2023-05-09T02:39:23.863Z,47.40
2023-05-09T02:40:27.687Z,47.75
2023-05-09T02:41:30.664Z,47.61
2023-05-09T02:42:32.953Z,48.07
2023-05-09T02:43:36.351Z,48.18
2023-05-09T02:44:38.893Z,47.58
2023-05-09T02:45:41.549Z,47.94
2023-05-09T02:46:43.856Z,47.77
2023-05-09T02:47:46.259Z,47.94
2023-05-09T02:48:48.692Z,48.09
2023-05-09T02:49:51.220Z,47.74
2023-05-09T02:50:53.730Z,47.67
2023-05-09T02:51:56.680Z,47.84
2023-05-09T02:53:01.281Z,47.33
2023-05-09T02:54:03.928Z,47.35
2023-05-09T02:55:07.763Z,47.48
2023-05-09T02:56:12.035Z,48.04
2023-05-09T02:57:14.436Z,48.20
2023-05-09T02:58:16.747Z,48.15
2023-05-09T02:59:19.755Z,48.09
2023-05-09T03:00:23.298Z,48.06
2023-05-09T03:01:25.712Z,48.06
2023-05-09T03:02:27.982Z,48.08
2023-05-09T03:03:34.354Z,47.69
2023-05-09T03:04:38.040Z,47.76
2023-05-09T03:05:40.361Z,48.08
2023-05-09T03:06:43.226Z,47.80
2023-05-09T03:07:45.446Z,47.86
2023-05-09T03:08:47.662Z,48.05
2023-05-09T03:09:50.487Z,48.27
2023-05-09T03:10:52.988Z,48.12
2023-05-09T03:11:56.206Z,48.44
2023-05-09T03:12:59.617Z,48.89
2023-05-09T03:14:03.414Z,48.45
2023-05-09T03:15:09.433Z,48.12
2023-05-09T03:16:14.514Z,48.29
2023-05-09T03:17:19.030Z,48.60
2023-05-09T03:18:21.394Z,48.81
2023-05-09T03:19:23.705Z,48.85
2023-05-09T03:20:27.567Z,48.77
2023-05-09T03:21:31.846Z,48.95
2023-05-09T03:22:34.445Z,49.18
2023-05-09T03:23:38.891Z,49.16
2023-05-09T03:24:41.266Z,49.16
2023-05-09T03:25:43.610Z,48.85
2023-05-09T03:26:47.086Z,49.30
2023-05-09T03:27:49.380Z,49.11
2023-05-09T03:28:51.772Z,49.46
2023-05-09T03:29:53.885Z,49.06
2023-05-09T03:30:57.151Z,48.70
2023-05-09T03:32:01.610Z,48.81
2023-05-09T03:33:04.334Z,49.45
2023-05-09T03:34:06.669Z,48.88
2023-05-09T03:35:09.023Z,48.97
2023-05-09T03:36:11.765Z,49.30
2023-05-09T03:37:15.727Z,49.21
2023-05-09T03:38:19.018Z,48.84
2023-05-09T03:39:21.784Z,49.15
2023-05-09T03:40:25.530Z,49.27
2023-05-09T03:41:30.946Z,49.27
2023-05-09T03:42:33.468Z,49.04
2023-05-09T03:43:36.796Z,49.12
2023-05-09T03:44:40.149Z,48.97
2023-05-09T03:45:43.134Z,48.55
2023-05-09T03:46:46.759Z,48.90
2023-05-09T03:47:50.167Z,49.10
2023-05-09T03:48:52.336Z,48.93
2023-05-09T03:49:54.387Z,48.48
2023-05-09T03:50:58.091Z,48.32
2023-05-09T03:52:03.181Z,48.54
2023-05-09T03:53:05.889Z,48.92
2023-05-09T03:54:08.699Z,48.13
2023-05-09T03:55:11.557Z,48.00
2023-05-09T03:56:14.892Z,48.18
2023-05-09T03:57:19.136Z,48.11
2023-05-09T03:58:22.177Z,48.65
2023-05-09T03:59:24.505Z,48.12
2023-05-09T04:00:27.124Z,48.21
2023-05-09T04:01:31.404Z,48.11
2023-05-09T04:02:34.213Z,48.11
2023-05-09T04:03:37.190Z,49.19
2023-05-09T04:04:40.465Z,48.69
2023-05-09T04:05:43.559Z,48.22
2023-05-09T04:06:47.789Z,48.25
2023-05-09T04:07:51.351Z,47.95
2023-05-09T04:08:54.086Z,48.75
2023-05-09T04:09:56.335Z,48.06
2023-05-09T04:10:59.065Z,47.88
2023-05-09T04:12:01.319Z,47.66
2023-05-09T04:13:04.211Z,47.91
2023-05-09T04:14:06.575Z,47.95
2023-05-09T04:15:11.131Z,47.87
2023-05-09T04:16:13.811Z,47.62
2023-05-09T04:17:16.596Z,47.46
2023-05-09T04:18:19.103Z,47.33
2023-05-09T04:19:21.317Z,46.92
2023-05-09T04:20:24.062Z,46.78
2023-05-09T04:21:26.578Z,46.62
2023-05-09T04:22:30.553Z,46.71
2023-05-09T04:23:32.967Z,46.72
2023-05-09T04:24:35.363Z,46.47
2023-05-09T04:25:37.780Z,46.49
2023-05-09T04:26:40.517Z,46.64
2023-05-09T04:27:44.886Z,46.22
2023-05-09T04:28:47.332Z,46.20
2023-05-09T04:29:51.098Z,46.20
2023-05-09T04:30:53.590Z,46.16
2023-05-09T04:31:57.969Z,46.18
2023-05-09T04:33:01.391Z,46.59
2023-05-09T04:34:04.627Z,46.37
2023-05-09T04:35:09.214Z,46.04
2023-05-09T04:36:15.584Z,45.92
2023-05-09T04:37:18.001Z,45.79
2023-05-09T04:38:21.779Z,45.96
2023-05-09T04:39:24.838Z,45.86
2023-05-09T04:40:29.338Z,45.69
2023-05-09T04:41:33.876Z,45.39
2023-05-09T04:42:37.061Z,45.57
2023-05-09T04:43:39.440Z,45.60
2023-05-09T04:44:42.260Z,45.67
2023-05-09T04:45:45.872Z,45.67
2023-05-09T04:46:49.990Z,45.91
2023-05-09T04:47:52.676Z,45.91
2023-05-09T04:48:55.297Z,45.63
2023-05-09T04:49:58.801Z,45.51
2023-05-09T04:51:02.071Z,45.25
2023-05-09T04:52:06.446Z,44.81
2023-05-09T04:53:09.122Z,44.81
2023-05-09T04:54:11.685Z,44.81
2023-05-09T04:55:15.384Z,44.62
2023-05-09T04:56:19.776Z,44.32
2023-05-09T04:57:22.424Z,44.23
2023-05-09T04:58:27.092Z,44.05
2023-05-09T04:59:29.826Z,44.14
2023-05-09T05:00:33.771Z,43.98
2023-05-09T05:01:36.115Z,43.78
2023-05-09T05:02:38.696Z,43.41
2023-05-09T05:03:41.074Z,43.44
2023-05-09T05:04:43.229Z,43.34
2023-05-09T05:05:46.519Z,43.10
2023-05-09T05:06:49.001Z,43.05
2023-05-09T05:07:51.102Z,42.84
2023-05-09T05:08:55.559Z,42.95
2023-05-09T05:09:58.042Z,42.62
2023-05-09T05:11:01.267Z,42.63
2023-05-09T05:12:06.682Z,42.32
2023-05-09T05:13:10.234Z,42.62
2023-05-09T05:14:15.121Z,42.43
2023-05-09T05:15:19.972Z,42.26
2023-05-09T05:16:22.814Z,42.22
2023-05-09T05:17:25.252Z,41.95
2023-05-09T05:18:28.054Z,41.98
2023-05-09T05:19:30.815Z,41.58
2023-05-09T05:20:33.989Z,41.37
2023-05-09T05:21:36.422Z,41.30
2023-05-09T05:22:39.007Z,41.30
2023-05-09T05:23:41.414Z,41.01
2023-05-09T05:24:44.717Z,41.18
2023-05-09T05:25:47.779Z,41.23
2023-05-09T05:26:50.546Z,40.91
2023-05-09T05:27:55.153Z,40.87
2023-05-09T05:28:57.486Z,40.91
2023-05-09T05:30:00.566Z,41.06
2023-05-09T05:31:03.172Z,41.36
2023-05-09T05:32:05.505Z,41.16
2023-05-09T05:33:08.283Z,41.06
2023-05-09T05:34:12.027Z,40.91
2023-05-09T05:35:15.074Z,41.10
2023-05-09T05:36:18.335Z,40.95
2023-05-09T05:37:20.713Z,40.86
2023-05-09T05:38:23.533Z,40.35
2023-05-09T05:39:27.694Z,40.27
2023-05-09T05:40:30.491Z,40.10
2023-05-09T05:41:33.550Z,40.33
2023-05-09T05:42:36.952Z,40.07
2023-05-09T05:43:39.749Z,39.90
2023-05-09T05:44:42.025Z,39.79
2023-05-09T05:45:44.554Z,40.06
2023-05-09T05:46:49.008Z,40.16
2023-05-09T05:47:51.356Z,40.22
2023-05-09T05:48:53.977Z,40.15
2023-05-09T05:49:57.549Z,39.99
2023-05-09T05:51:01.057Z,39.82
2023-05-09T05:52:05.435Z,39.91
2023-05-09T05:53:07.715Z,39.84
2023-05-09T05:54:10.934Z,39.98
2023-05-09T05:55:13.508Z,40.05
2023-05-09T05:56:16.191Z,40.07
2023-05-09T05:57:18.580Z,39.98
2023-05-09T05:58:21.955Z,39.75
2023-05-09T05:59:25.707Z,39.44
2023-05-09T06:00:28.780Z,39.47
2023-05-09T06:01:32.941Z,39.48
2023-05-09T06:02:35.335Z,39.63
2023-05-09T06:03:37.811Z,39.61
2023-05-09T06:04:42.065Z,39.52
2023-05-09T06:05:46.051Z,39.45
2023-05-09T06:06:48.654Z,39.86
2023-05-09T06:07:51.090Z,39.89
2023-05-09T06:08:53.912Z,40.06
2023-05-09T06:09:57.284Z,40.05
2023-05-09T06:11:02.684Z,39.89
2023-05-09T06:12:05.829Z,39.94
2023-05-09T06:13:08.641Z,39.74
2023-05-09T06:14:11.823Z,39.67
2023-05-09T06:15:14.480Z,39.67
2023-05-09T06:16:20.579Z,39.63
2023-05-09T06:17:24.965Z,39.39
2023-05-09T06:18:28.277Z,39.56
2023-05-09T06:19:31.456Z,39.62
2023-05-09T06:20:35.903Z,39.81
2023-05-09T06:21:38.462Z,39.37
2023-05-09T06:22:42.498Z,39.46
2023-05-09T06:24:01.536Z,39.07
2023-05-09T06:24:49.882Z,38.84
2023-05-09T06:25:52.265Z,38.97
2023-05-09T06:26:54.984Z,38.76
2023-05-09T06:27:57.183Z,38.58
2023-05-09T06:28:59.184Z,38.40
2023-05-09T06:30:04.195Z,38.54
2023-05-09T06:31:06.784Z,38.75
2023-05-09T06:32:09.239Z,38.60
2023-05-09T06:33:11.479Z,37.86
2023-05-09T06:34:14.365Z,38.01
2023-05-09T06:35:16.806Z,40.03
2023-05-09T06:36:19.268Z,38.24
2023-05-09T06:37:21.367Z,36.89
2023-05-09T06:38:23.599Z,37.36
2023-05-09T06:39:25.924Z,37.93
2023-05-09T06:40:29.307Z,38.07
2023-05-09T06:41:33.383Z,38.13
2023-05-09T06:42:36.089Z,36.94
2023-05-09T06:43:38.248Z,36.50
2023-05-09T06:44:43.250Z,36.85
2023-05-09T06:45:45.508Z,36.46
2023-05-09T06:46:47.844Z,38.26
2023-05-09T06:47:50.360Z,37.08
2023-05-09T06:48:52.663Z,36.20
2023-05-09T06:49:54.965Z,35.75
2023-05-09T06:50:57.649Z,36.53
2023-05-09T06:51:59.884Z,37.58
2023-05-09T06:53:02.022Z,38.40
2023-05-09T06:54:04.144Z,36.30
2023-05-09T06:55:08.058Z,36.85
2023-05-09T06:56:10.855Z,36.68
2023-05-09T06:57:13.330Z,35.76
2023-05-09T06:58:16.065Z,37.48
2023-05-09T06:59:18.632Z,36.56
2023-05-09T07:00:21.823Z,35.22
2023-05-09T07:01:24.236Z,36.07
2023-05-09T07:02:26.335Z,35.40
2023-05-09T07:03:28.641Z,35.16
2023-05-09T07:04:30.812Z,34.90
2023-05-09T07:05:33.909Z,34.85
2023-05-09T07:06:36.261Z,34.71
2023-05-09T07:07:38.633Z,33.94
2023-05-09T07:08:40.901Z,34.07
2023-05-09T07:09:44.187Z,34.08
2023-05-09T07:10:46.776Z,34.31
2023-05-09T07:11:49.392Z,34.37
2023-05-09T07:12:52.676Z,33.20
2023-05-09T07:13:55.026Z,33.37
2023-05-09T07:14:57.206Z,33.57
2023-05-09T07:15:59.643Z,33.25
2023-05-09T07:17:18.185Z,33.13
2023-05-09T07:18:05.875Z,33.59
2023-05-09T07:19:08.781Z,33.49
2023-05-09T07:20:11.292Z,33.32
2023-05-09T07:21:13.629Z,32.90
2023-05-09T07:22:15.858Z,32.74
2023-05-09T07:23:18.263Z,32.99
2023-05-09T07:24:20.757Z,32.97
2023-05-09T07:25:24.123Z,32.64
2023-05-09T07:26:26.391Z,32.82
2023-05-09T07:27:29.222Z,32.83
2023-05-09T07:28:32.287Z,32.59
2023-05-09T07:29:34.627Z,31.59
2023-05-09T07:30:37.425Z,31.65
2023-05-09T07:31:39.482Z,31.30
2023-05-09T07:32:42.744Z,31.47
2023-05-09T07:33:45.045Z,31.37
2023-05-09T07:34:47.562Z,31.23
2023-05-09T07:35:49.994Z,31.22
2023-05-09T07:36:52.167Z,31.76
2023-05-09T07:37:54.323Z,31.02
2023-05-09T07:38:56.784Z,31.67
2023-05-09T07:39:59.818Z,30.40
2023-05-09T07:41:02.114Z,30.40
2023-05-09T07:42:04.772Z,29.61
2023-05-09T07:43:06.980Z,30.19
2023-05-09T07:44:09.990Z,30.09
2023-05-09T07:45:12.612Z,29.70
2023-05-09T07:46:15.271Z,29.93
2023-05-09T07:47:17.570Z,29.19
2023-05-09T07:48:20.549Z,29.17
2023-05-09T07:49:23.215Z,28.81
2023-05-09T07:50:25.729Z,28.24
2023-05-09T07:51:28.021Z,28.66
2023-05-09T07:52:30.154Z,28.25
2023-05-09T07:53:32.812Z,27.97
2023-05-09T07:54:35.005Z,27.36
2023-05-09T07:55:37.341Z,27.80
2023-05-09T07:56:39.443Z,28.15
2023-05-09T07:57:41.900Z,26.28
2023-05-09T07:58:44.760Z,26.12
2023-05-09T07:59:47.506Z,26.21
2023-05-09T08:00:49.839Z,26.78
2023-05-09T08:01:52.158Z,26.86
2023-05-09T08:02:54.482Z,26.70
2023-05-09T08:03:56.800Z,27.37
2023-05-09T08:04:59.252Z,26.89
2023-05-09T08:06:02.487Z,25.95
2023-05-09T08:07:05.574Z,26.12
2023-05-09T08:08:07.905Z,26.40
2023-05-09T08:09:11.309Z,26.40
2023-05-09T08:10:14.863Z,26.85
2023-05-09T08:11:17.399Z,26.96
2023-05-09T08:12:19.525Z,26.96
2023-05-09T08:13:23.062Z,27.55
2023-05-09T08:14:25.500Z,26.86
2023-05-09T08:15:27.973Z,27.09
2023-05-09T08:16:30.914Z,26.64
2023-05-09T08:17:33.895Z,25.69
2023-05-09T08:18:36.388Z,26.18
2023-05-09T08:19:39.532Z,26.37
2023-05-09T08:20:41.813Z,26.16
2023-05-09T08:21:44.975Z,26.39
2023-05-09T08:22:47.155Z,26.56
2023-05-09T08:23:49.866Z,26.83
2023-05-09T08:24:51.973Z,26.41
2023-05-09T08:25:55.413Z,26.42
2023-05-09T08:26:57.831Z,26.66
2023-05-09T08:28:00.054Z,26.35
2023-05-09T08:29:03.569Z,25.97
2023-05-09T08:30:07.470Z,26.28
2023-05-09T08:31:10.550Z,26.23
2023-05-09T08:32:13.684Z,25.67
2023-05-09T08:33:16.564Z,26.32
2023-05-09T08:34:20.457Z,25.71
2023-05-09T08:35:23.245Z,25.81
2023-05-09T08:36:25.605Z,25.55
2023-05-09T08:37:28.892Z,25.93
2023-05-09T08:38:31.516Z,25.86
2023-05-09T08:39:35.621Z,25.93
2023-05-09T08:40:38.290Z,26.20
2023-05-09T08:41:41.806Z,26.23
2023-05-09T08:42:45.615Z,26.51
2023-05-09T08:43:49.040Z,26.05
2023-05-09T08:44:51.675Z,26.64
2023-05-09T08:45:59.929Z,26.09
2023-05-09T08:47:05.824Z,25.63
2023-05-09T08:48:09.457Z,25.88
2023-05-09T08:49:14.420Z,26.42
2023-05-09T08:50:17.364Z,26.08
2023-05-09T08:51:20.928Z,25.62
2023-05-09T08:52:23.488Z,25.89
2023-05-09T08:53:27.200Z,25.48
2023-05-09T08:54:30.660Z,26.02
2023-05-09T08:55:33.045Z,26.14
2023-05-09T08:56:36.242Z,25.14
2023-05-09T08:57:38.524Z,25.37
2023-05-09T08:58:41.727Z,25.44
2023-05-09T08:59:45.009Z,25.35
2023-05-09T09:00:49.854Z,24.62
2023-05-09T09:01:55.122Z,24.92
2023-05-09T09:03:00.264Z,24.67
2023-05-09T09:04:05.630Z,24.63
2023-05-09T09:05:19.659Z,24.73
2023-05-09T09:06:14.456Z,24.66
2023-05-09T09:07:17.811Z,25.00
2023-05-09T09:08:21.749Z,26.07
2023-05-09T09:09:25.225Z,24.64
2023-05-09T09:10:32.033Z,25.17
2023-05-09T09:11:35.517Z,24.97
2023-05-09T09:12:38.981Z,25.27
2023-05-09T09:13:43.560Z,24.74
2023-05-09T09:14:50.632Z,24.88
2023-05-09T09:15:54.720Z,24.86
2023-05-09T09:16:58.196Z,24.60
2023-05-09T09:18:09.347Z,24.37
2023-05-09T09:19:15.054Z,24.49
2023-05-09T09:20:20.450Z,24.50
2023-05-09T09:21:25.670Z,23.79
2023-05-09T09:22:33.175Z,24.14
2023-05-09T09:23:38.642Z,24.00
2023-05-09T09:24:41.476Z,23.88
2023-05-09T09:25:46.605Z,24.37
2023-05-09T09:26:50.580Z,23.79
2023-05-09T09:27:53.276Z,24.40
2023-05-09T09:28:57.890Z,24.47
2023-05-09T09:30:10.945Z,24.11
2023-05-09T09:31:26.246Z,24.04
2023-05-09T09:32:35.543Z,24.03
2023-05-09T09:33:38.473Z,24.53
2023-05-09T09:34:40.861Z,24.26
2023-05-09T09:35:43.278Z,24.36
2023-05-09T09:36:47.601Z,24.68
2023-05-09T09:37:53.558Z,24.33
2023-05-09T09:39:01.059Z,24.37
2023-05-09T09:40:04.558Z,24.80
2023-05-09T09:41:06.735Z,24.07
2023-05-09T09:42:13.372Z,24.56
2023-05-09T09:43:16.140Z,24.43
2023-05-09T09:44:21.039Z,24.55
2023-05-09T09:45:24.442Z,24.12
2023-05-09T09:46:27.525Z,24.78
2023-05-09T09:47:32.692Z,24.39
2023-05-09T09:48:35.621Z,24.74
2023-05-09T09:49:39.866Z,24.46
2023-05-09T09:50:42.626Z,23.62
2023-05-09T09:51:47.074Z,23.51
2023-05-09T09:52:51.441Z,24.02
2023-05-09T09:53:53.620Z,23.91
2023-05-09T09:54:56.357Z,24.13
2023-05-09T09:55:59.072Z,24.02
2023-05-09T09:57:02.073Z,24.38
2023-05-09T09:58:08.327Z,24.61
2023-05-09T09:59:13.664Z,23.67
2023-05-09T10:00:22.576Z,23.65
2023-05-09T10:01:24.874Z,23.83
2023-05-09T10:02:27.174Z,23.98
2023-05-09T10:03:38.949Z,23.99
2023-05-09T10:04:42.765Z,23.82
2023-05-09T10:05:45.219Z,24.08
2023-05-09T10:06:58.114Z,23.57
2023-05-09T10:08:03.379Z,22.87
2023-05-09T10:09:06.567Z,23.21
2023-05-09T10:10:09.796Z,23.95
2023-05-09T10:11:12.286Z,23.68
2023-05-09T10:12:17.490Z,23.47
2023-05-09T10:13:21.995Z,23.23
2023-05-09T10:14:27.128Z,23.51
2023-05-09T10:15:38.470Z,24.69
2023-05-09T10:16:43.697Z,23.45
2023-05-09T10:17:42.434Z,24.18
2023-05-09T10:18:45.418Z,26.89
2023-05-09T10:19:50.418Z,25.50
2023-05-09T10:20:54.372Z,25.50
2023-05-09T10:22:03.733Z,24.58
2023-05-09T10:23:07.398Z,24.71
2023-05-09T10:24:11.170Z,24.42
2023-05-09T10:25:21.708Z,24.82
2023-05-09T10:26:31.045Z,25.04
2023-05-09T10:27:37.704Z,23.58
2023-05-09T10:28:43.487Z,24.05
2023-05-09T10:30:04.559Z,24.16
2023-05-09T10:31:19.722Z,22.94
2023-05-09T10:32:25.512Z,22.59
2023-05-09T10:33:40.844Z,24.46
2023-05-09T10:34:46.640Z,25.14
2023-05-09T10:35:52.096Z,25.41
2023-05-09T10:36:55.842Z,23.20
2023-05-09T10:38:02.153Z,23.34
2023-05-09T10:39:05.244Z,24.72
2023-05-09T10:40:12.700Z,24.15
2023-05-09T10:41:18.176Z,23.94
2023-05-09T10:42:24.355Z,23.91
2023-05-09T10:43:27.663Z,23.41
2023-05-09T10:44:30.152Z,24.36
2023-05-09T10:45:33.624Z,24.74
2023-05-09T10:46:38.017Z,23.98
2023-05-09T10:47:42.173Z,23.10
2023-05-09T10:48:45.177Z,23.75
2023-05-09T10:49:49.885Z,27.04
2023-05-09T10:50:53.019Z,24.97
2023-05-09T10:51:56.015Z,23.84
2023-05-09T10:53:09.197Z,22.59
2023-05-09T10:54:16.287Z,23.18
2023-05-09T10:55:19.199Z,23.47
2023-05-09T10:56:39.347Z,25.11
2023-05-09T10:57:45.898Z,25.75
2023-05-09T10:58:48.458Z,23.29
2023-05-09T10:59:52.414Z,24.67
2023-05-09T11:00:57.346Z,23.04
2023-05-09T11:02:03.415Z,22.36
2023-05-09T11:03:07.894Z,23.26
2023-05-09T11:04:15.741Z,23.36
2023-05-09T11:05:20.252Z,23.07
2023-05-09T11:06:43.343Z,23.73
2023-05-09T11:07:46.752Z,23.56
2023-05-09T11:08:49.110Z,23.07
2023-05-09T11:09:55.803Z,25.54
2023-05-09T11:11:00.788Z,22.87
2023-05-09T11:12:09.516Z,23.55
2023-05-09T11:13:11.927Z,23.15
2023-05-09T11:14:32.777Z,22.23
2023-05-09T11:15:37.457Z,22.33
2023-05-09T11:16:58.733Z,21.49
2023-05-09T11:18:10.550Z,22.92
2023-05-09T11:19:17.478Z,23.00
2023-05-09T11:20:23.294Z,24.30
2023-05-09T11:21:26.079Z,22.74
2023-05-09T11:22:43.208Z,23.05
2023-05-09T11:23:45.761Z,21.12
2023-05-09T11:24:54.625Z,21.90
2023-05-09T11:26:08.096Z,22.05
2023-05-09T11:27:21.330Z,25.27
2023-05-09T11:28:31.581Z,23.19
2023-05-09T11:29:54.384Z,21.88
2023-05-09T11:31:11.677Z,21.75
2023-05-09T11:32:15.499Z,22.89
2023-05-09T11:33:32.320Z,23.54
2023-05-09T11:34:35.636Z,22.77
2023-05-09T11:35:38.582Z,23.14
2023-05-09T11:36:44.695Z,22.17
2023-05-09T11:37:54.540Z,21.69
2023-05-09T11:39:09.459Z,21.28
2023-05-09T11:40:15.374Z,22.59
2023-05-09T11:41:17.870Z,22.08
2023-05-09T11:42:22.581Z,22.44
2023-05-09T11:43:24.956Z,21.27
2023-05-09T11:44:30.004Z,21.58
2023-05-09T11:45:33.037Z,22.21
2023-05-09T11:46:37.330Z,22.47
2023-05-09T11:47:41.642Z,22.14
2023-05-09T11:48:44.438Z,22.45
2023-05-09T11:51:03.978Z,22.21
2023-05-09T11:52:07.238Z,22.44
2023-05-09T11:53:11.797Z,22.78
2023-05-09T11:54:14.298Z,22.68
2023-05-09T11:55:19.752Z,23.29
2023-05-09T11:56:22.598Z,23.71
2023-05-09T11:57:26.157Z,23.83
2023-05-09T11:58:28.583Z,24.40
2023-05-09T11:59:31.428Z,22.88
2023-05-09T12:00:33.827Z,22.26
2023-05-09T12:01:36.232Z,22.50
2023-05-09T12:02:38.947Z,23.44
2023-05-09T12:04:55.495Z,22.33
2023-05-09T12:05:58.482Z,22.81
2023-05-09T12:07:01.525Z,24.46
2023-05-09T12:08:04.932Z,23.54
2023-05-09T12:09:10.688Z,24.35
2023-05-09T12:10:15.835Z,23.67
2023-05-09T12:11:18.464Z,25.10
2023-05-09T12:12:22.578Z,25.09
2023-05-09T12:13:25.003Z,23.08
2023-05-09T12:14:29.995Z,24.93
2023-05-09T12:15:38.461Z,22.49
2023-05-09T12:16:46.672Z,26.24
2023-05-09T12:18:03.679Z,25.23
2023-05-09T12:19:09.550Z,23.59
2023-05-09T12:20:14.421Z,22.54
2023-05-09T12:21:19.033Z,22.72
2023-05-09T12:22:21.665Z,22.45
2023-05-09T12:23:24.689Z,23.43
2023-05-09T12:24:28.843Z,23.06
2023-05-09T12:25:31.900Z,22.55
2023-05-09T12:26:35.229Z,23.74
2023-05-09T12:27:39.426Z,24.24
2023-05-09T12:28:43.218Z,22.48
2023-05-09T12:29:48.081Z,22.61
2023-05-09T12:30:51.755Z,24.19
2023-05-09T12:31:55.059Z,23.25
2023-05-09T12:32:59.504Z,26.10
2023-05-09T12:34:02.406Z,22.06
2023-05-09T12:35:07.636Z,22.25
2023-05-09T12:36:12.961Z,25.55
2023-05-09T12:37:18.292Z,22.78
2023-05-09T12:38:22.038Z,22.76
2023-05-09T12:39:25.226Z,23.73
2023-05-09T12:40:27.844Z,21.87
2023-05-09T12:41:39.240Z,23.47
2023-05-09T12:42:35.747Z,22.96
2023-05-09T12:43:43.306Z,22.67
2023-05-09T12:44:49.817Z,22.64
2023-05-09T12:45:52.756Z,23.07
2023-05-09T12:47:01.193Z,23.62
2023-05-09T12:48:04.592Z,24.40
2023-05-09T12:49:11.113Z,22.66
2023-05-09T12:50:13.757Z,25.42
2023-05-09T12:51:20.389Z,24.29
2023-05-09T12:52:22.667Z,22.61
2023-05-09T12:53:28.702Z,22.34
2023-05-09T12:54:31.507Z,23.42
2023-05-09T12:55:40.691Z,23.56
2023-05-09T12:56:43.136Z,22.55
2023-05-09T12:57:48.807Z,22.35
2023-05-09T12:58:53.232Z,22.73
2023-05-09T12:59:59.544Z,22.54
2023-05-09T13:01:04.012Z,23.21
2023-05-09T13:02:07.158Z,23.37
2023-05-09T13:04:32.822Z,23.86
2023-05-09T13:05:35.300Z,24.52
2023-05-09T13:06:41.248Z,24.72
2023-05-09T13:07:48.851Z,25.80
2023-05-09T13:09:02.260Z,23.33
2023-05-09T13:11:20.043Z,26.07
2023-05-09T13:12:22.603Z,23.48
2023-05-09T13:13:29.791Z,24.54
2023-05-09T13:14:34.116Z,23.84
2023-05-09T13:15:39.058Z,24.08
2023-05-09T13:16:42.903Z,23.83
2023-05-09T13:17:51.078Z,25.04
2023-05-09T13:18:53.396Z,23.64
2023-05-09T13:19:56.295Z,26.55
2023-05-09T13:20:58.591Z,24.84
2023-05-09T13:22:01.409Z,23.61
2023-05-09T13:23:04.176Z,23.47
2023-05-09T13:24:07.807Z,24.55
2023-05-09T13:25:11.261Z,24.74
2023-05-09T13:26:14.742Z,23.37
2023-05-09T13:27:19.755Z,24.58
2023-05-09T13:28:23.715Z,24.57
2023-05-09T13:29:27.076Z,24.77
2023-05-09T13:30:30.451Z,25.47
2023-05-09T13:31:33.099Z,23.53
2023-05-09T13:33:48.693Z,22.83
2023-05-09T13:34:52.278Z,22.84
2023-05-09T13:35:54.440Z,23.06
2023-05-09T13:36:57.443Z,22.88
2023-05-09T13:38:00.639Z,23.18
2023-05-09T13:39:02.891Z,23.88
2023-05-09T13:40:06.491Z,23.53
2023-05-09T13:41:10.058Z,23.89
2023-05-09T13:42:12.308Z,23.05
2023-05-09T13:43:14.776Z,24.67
2023-05-09T13:44:17.660Z,23.53
2023-05-09T13:45:19.910Z,24.27
2023-05-09T13:46:22.264Z,24.65
2023-05-09T13:47:24.552Z,24.86
2023-05-09T13:48:26.943Z,27.19
2023-05-09T13:49:29.144Z,24.15
2023-05-09T13:50:31.819Z,24.23
2023-05-09T13:51:34.489Z,24.06
2023-05-09T13:52:37.057Z,24.25
2023-05-09T13:53:40.261Z,24.72
2023-05-09T13:54:43.218Z,24.32
2023-05-09T13:55:45.881Z,27.08